sensor_id;sensor_type;location;lat;lon;timestamp;P1;durP1;ratioP1;P2;durP2;ratioP2
76788;SDS011;65740;52.464;13.446;2023-06-26T00:01:14;10.30;;;9.60;;
76788;SDS011;65740;52.464;13.446;2023-06-26T00:03:40;10.00;;;9.30;;
76788;SDS011;65740;52.464;13.446;2023-06-26T00:06:06;9.60;;;8.90;;
76788;SDS011;65740;52.464;13.446;2023-06-26T00:08:31;10.60;;;9.80;;
76788;SDS011;65740;52.464;13.446;2023-06-26T00:10:57;10.70;;;9.90;;
76788;SDS011;65740;52.464;13.446;2023-06-26T00:13:23;10.47;;;9.67;;
76788;SDS011;65740;52.464;13.446;2023-06-26T00:15:49;10.03;;;9.10;;
76788;SDS011;65740;52.464;13.446;2023-06-26T00:18:15;9.97;;;9.27;;
76788;SDS011;65740;52.464;13.446;2023-06-26T00:20:41;10.10;;;9.40;;
76788;SDS011;65740;52.464;13.446;2023-06-26T00:23:07;9.43;;;8.73;;
76788;SDS011;65740;52.464;13.446;2023-06-26T00:25:35;9.67;;;8.97;;
76788;SDS011;65740;52.464;13.446;2023-06-26T00:28:01;10.23;;;9.43;;
76788;SDS011;65740;52.464;13.446;2023-06-26T00:30:26;8.87;;;8.17;;
76788;SDS011;65740;52.464;13.446;2023-06-26T00:32:52;9.87;;;9.17;;
76788;SDS011;65740;52.464;13.446;2023-06-26T00:35:18;10.43;;;9.63;;
76788;SDS011;65740;52.464;13.446;2023-06-26T00:37:43;10.00;;;9.30;;
76788;SDS011;65740;52.464;13.446;2023-06-26T00:40:09;10.40;;;9.60;;
76788;SDS011;65740;52.464;13.446;2023-06-26T00:42:35;9.10;;;8.43;;
76788;SDS011;65740;52.464;13.446;2023-06-26T00:45:01;10.20;;;9.43;;
76788;SDS011;65740;52.464;13.446;2023-06-26T00:47:26;10.47;;;9.67;;
76788;SDS011;65740;52.464;13.446;2023-06-26T00:49:52;10.20;;;9.40;;
76788;SDS011;65740;52.464;13.446;2023-06-26T00:52:19;9.70;;;9.00;;
76788;SDS011;65740;52.464;13.446;2023-06-26T00:54:45;9.60;;;8.90;;
76788;SDS011;65740;52.464;13.446;2023-06-26T00:57:11;10.23;;;9.40;;
76788;SDS011;65740;52.464;13.446;2023-06-26T00:59:37;10.43;;;9.63;;
76788;SDS011;65740;52.464;13.446;2023-06-26T01:02:03;10.73;;;9.83;;
76788;SDS011;65740;52.464;13.446;2023-06-26T01:04:29;9.33;;;8.63;;
76788;SDS011;65740;52.464;13.446;2023-06-26T01:06:57;9.80;;;9.20;;
76788;SDS011;65740;52.464;13.446;2023-06-26T01:09:24;10.50;;;9.60;;
76788;SDS011;65740;52.464;13.446;2023-06-26T01:11:50;10.10;;;9.30;;
76788;SDS011;65740;52.464;13.446;2023-06-26T01:14:16;10.20;;;9.33;;
76788;SDS011;65740;52.464;13.446;2023-06-26T01:16:43;9.77;;;9.07;;
76788;SDS011;65740;52.464;13.446;2023-06-26T01:19:33;9.80;;;9.10;;
76788;SDS011;65740;52.464;13.446;2023-06-26T01:22:02;10.20;;;9.50;;
76788;SDS011;65740;52.464;13.446;2023-06-26T01:28:04;10.43;;;9.63;;
76788;SDS011;65740;52.464;13.446;2023-06-26T01:30:35;10.27;;;9.43;;
76788;SDS011;65740;52.464;13.446;2023-06-26T01:33:05;9.70;;;9.00;;
76788;SDS011;65740;52.464;13.446;2023-06-26T01:35:30;9.53;;;8.93;;
76788;SDS011;65740;52.464;13.446;2023-06-26T01:38:16;10.13;;;9.43;;
76788;SDS011;65740;52.464;13.446;2023-06-26T01:40:43;10.80;;;10.00;;
76788;SDS011;65740;52.464;13.446;2023-06-26T01:43:20;10.10;;;9.30;;
76788;SDS011;65740;52.464;13.446;2023-06-26T01:45:51;9.40;;;8.70;;
76788;SDS011;65740;52.464;13.446;2023-06-26T01:48:22;9.97;;;9.27;;
76788;SDS011;65740;52.464;13.446;2023-06-26T01:50:52;9.77;;;9.07;;
76788;SDS011;65740;52.464;13.446;2023-06-26T01:53:19;10.67;;;9.80;;
76788;SDS011;65740;52.464;13.446;2023-06-26T01:55:59;10.40;;;9.60;;
76788;SDS011;65740;52.464;13.446;2023-06-26T01:58:31;10.83;;;9.83;;
76788;SDS011;65740;52.464;13.446;2023-06-26T02:00:58;10.17;;;9.43;;
76788;SDS011;65740;52.464;13.446;2023-06-26T02:03:24;10.70;;;9.90;;
76788;SDS011;65740;52.464;13.446;2023-06-26T02:05:50;10.93;;;10.20;;
76788;SDS011;65740;52.464;13.446;2023-06-26T02:08:16;10.70;;;9.90;;
76788;SDS011;65740;52.464;13.446;2023-06-26T02:10:41;10.53;;;9.70;;
76788;SDS011;65740;52.464;13.446;2023-06-26T02:13:07;10.60;;;9.83;;
76788;SDS011;65740;52.464;13.446;2023-06-26T02:15:33;10.83;;;9.97;;
76788;SDS011;65740;52.464;13.446;2023-06-26T02:17:58;11.13;;;10.33;;
76788;SDS011;65740;52.464;13.446;2023-06-26T02:20:24;10.13;;;9.33;;
76788;SDS011;65740;52.464;13.446;2023-06-26T02:22:49;10.70;;;9.90;;
76788;SDS011;65740;52.464;13.446;2023-06-26T02:25:15;11.67;;;10.63;;
76788;SDS011;65740;52.464;13.446;2023-06-26T02:27:42;10.33;;;9.60;;
76788;SDS011;65740;52.464;13.446;2023-06-26T02:30:08;10.97;;;10.00;;
76788;SDS011;65740;52.464;13.446;2023-06-26T02:32:34;10.27;;;9.53;;
76788;SDS011;65740;52.464;13.446;2023-06-26T02:35:00;10.40;;;9.70;;
76788;SDS011;65740;52.464;13.446;2023-06-26T02:37:26;10.00;;;9.30;;
76788;SDS011;65740;52.464;13.446;2023-06-26T02:39:51;9.70;;;9.00;;
76788;SDS011;65740;52.464;13.446;2023-06-26T02:42:17;10.97;;;10.17;;
76788;SDS011;65740;52.464;13.446;2023-06-26T02:44:42;10.93;;;10.13;;
76788;SDS011;65740;52.464;13.446;2023-06-26T02:47:08;11.20;;;10.40;;
76788;SDS011;65740;52.464;13.446;2023-06-26T02:49:34;10.70;;;9.90;;
76788;SDS011;65740;52.464;13.446;2023-06-26T02:51:59;11.70;;;10.70;;
76788;SDS011;65740;52.464;13.446;2023-06-26T02:54:25;11.60;;;10.70;;
76788;SDS011;65740;52.464;13.446;2023-06-26T02:56:50;11.07;;;10.33;;
76788;SDS011;65740;52.464;13.446;2023-06-26T02:59:16;11.13;;;10.43;;
76788;SDS011;65740;52.464;13.446;2023-06-26T03:01:42;11.67;;;10.77;;
76788;SDS011;65740;52.464;13.446;2023-06-26T03:04:08;10.70;;;9.90;;
76788;SDS011;65740;52.464;13.446;2023-06-26T03:06:35;11.33;;;10.50;;
76788;SDS011;65740;52.464;13.446;2023-06-26T03:09:01;11.30;;;10.50;;
76788;SDS011;65740;52.464;13.446;2023-06-26T03:11:27;10.57;;;9.87;;
76788;SDS011;65740;52.464;13.446;2023-06-26T03:13:53;11.07;;;10.33;;
76788;SDS011;65740;52.464;13.446;2023-06-26T03:16:19;11.30;;;10.50;;
76788;SDS011;65740;52.464;13.446;2023-06-26T03:18:44;11.53;;;10.60;;
76788;SDS011;65740;52.464;13.446;2023-06-26T03:21:10;11.83;;;10.93;;
76788;SDS011;65740;52.464;13.446;2023-06-26T03:23:35;11.00;;;10.20;;
76788;SDS011;65740;52.464;13.446;2023-06-26T03:26:01;11.13;;;10.33;;
76788;SDS011;65740;52.464;13.446;2023-06-26T03:28:27;11.00;;;10.13;;
76788;SDS011;65740;52.464;13.446;2023-06-26T03:30:52;11.10;;;10.40;;
76788;SDS011;65740;52.464;13.446;2023-06-26T03:33:18;10.90;;;10.10;;
76788;SDS011;65740;52.464;13.446;2023-06-26T03:35:43;10.97;;;10.27;;
76788;SDS011;65740;52.464;13.446;2023-06-26T03:38:09;12.30;;;11.30;;
76788;SDS011;65740;52.464;13.446;2023-06-26T03:40:34;11.60;;;10.43;;
76788;SDS011;65740;52.464;13.446;2023-06-26T03:43:00;11.53;;;10.73;;
76788;SDS011;65740;52.464;13.446;2023-06-26T03:45:26;11.57;;;10.70;;
76788;SDS011;65740;52.464;13.446;2023-06-26T03:47:51;11.57;;;10.57;;
76788;SDS011;65740;52.464;13.446;2023-06-26T03:50:17;11.43;;;10.63;;
76788;SDS011;65740;52.464;13.446;2023-06-26T03:52:43;10.87;;;10.17;;
76788;SDS011;65740;52.464;13.446;2023-06-26T03:55:09;12.23;;;11.23;;
76788;SDS011;65740;52.464;13.446;2023-06-26T03:57:34;11.33;;;10.53;;
76788;SDS011;65740;52.464;13.446;2023-06-26T04:00:00;11.70;;;10.83;;
76788;SDS011;65740;52.464;13.446;2023-06-26T04:02:26;11.27;;;10.57;;
76788;SDS011;65740;52.464;13.446;2023-06-26T04:04:52;11.40;;;10.50;;
76788;SDS011;65740;52.464;13.446;2023-06-26T04:07:18;10.63;;;9.83;;
76788;SDS011;65740;52.464;13.446;2023-06-26T04:09:44;12.03;;;11.23;;
76788;SDS011;65740;52.464;13.446;2023-06-26T04:12:10;11.23;;;10.53;;
76788;SDS011;65740;52.464;13.446;2023-06-26T04:14:35;11.70;;;10.87;;
76788;SDS011;65740;52.464;13.446;2023-06-26T04:17:01;12.37;;;11.23;;
76788;SDS011;65740;52.464;13.446;2023-06-26T04:19:28;11.50;;;10.70;;
76788;SDS011;65740;52.464;13.446;2023-06-26T04:21:54;11.73;;;10.93;;
76788;SDS011;65740;52.464;13.446;2023-06-26T04:24:20;11.07;;;10.30;;
76788;SDS011;65740;52.464;13.446;2023-06-26T04:26:45;11.17;;;10.37;;
76788;SDS011;65740;52.464;13.446;2023-06-26T04:29:11;12.43;;;11.53;;
76788;SDS011;65740;52.464;13.446;2023-06-26T04:31:36;10.97;;;10.27;;
76788;SDS011;65740;52.464;13.446;2023-06-26T04:34:04;12.00;;;11.20;;
76788;SDS011;65740;52.464;13.446;2023-06-26T04:36:29;12.57;;;11.57;;
76788;SDS011;65740;52.464;13.446;2023-06-26T04:38:56;11.60;;;10.80;;
76788;SDS011;65740;52.464;13.446;2023-06-26T04:41:22;12.10;;;11.20;;
76788;SDS011;65740;52.464;13.446;2023-06-26T04:43:48;11.07;;;10.20;;
76788;SDS011;65740;52.464;13.446;2023-06-26T04:46:13;11.33;;;10.53;;
76788;SDS011;65740;52.464;13.446;2023-06-26T04:48:39;12.63;;;11.63;;
76788;SDS011;65740;52.464;13.446;2023-06-26T04:51:04;11.27;;;10.57;;
76788;SDS011;65740;52.464;13.446;2023-06-26T04:53:30;11.57;;;10.67;;
76788;SDS011;65740;52.464;13.446;2023-06-26T04:55:56;12.80;;;11.90;;
76788;SDS011;65740;52.464;13.446;2023-06-26T04:58:21;11.27;;;10.50;;
76788;SDS011;65740;52.464;13.446;2023-06-26T05:00:47;12.10;;;11.30;;
76788;SDS011;65740;52.464;13.446;2023-06-26T05:03:13;11.67;;;10.87;;
76788;SDS011;65740;52.464;13.446;2023-06-26T05:05:40;12.40;;;11.30;;
76788;SDS011;65740;52.464;13.446;2023-06-26T05:08:18;11.60;;;10.80;;
76788;SDS011;65740;52.464;13.446;2023-06-26T05:10:48;11.87;;;11.10;;
76788;SDS011;65740;52.464;13.446;2023-06-26T05:13:14;12.60;;;11.70;;
76788;SDS011;65740;52.464;13.446;2023-06-26T05:15:43;10.97;;;10.07;;
76788;SDS011;65740;52.464;13.446;2023-06-26T05:18:09;12.50;;;11.70;;
76788;SDS011;65740;52.464;13.446;2023-06-26T05:20:35;11.93;;;11.13;;
76788;SDS011;65740;52.464;13.446;2023-06-26T05:23:02;12.20;;;11.30;;
76788;SDS011;65740;52.464;13.446;2023-06-26T05:25:28;12.00;;;11.10;;
76788;SDS011;65740;52.464;13.446;2023-06-26T05:27:55;11.43;;;10.73;;
76788;SDS011;65740;52.464;13.446;2023-06-26T05:30:24;12.40;;;11.40;;
76788;SDS011;65740;52.464;13.446;2023-06-26T05:32:51;12.07;;;11.17;;
76788;SDS011;65740;52.464;13.446;2023-06-26T05:35:17;11.77;;;10.97;;
76788;SDS011;65740;52.464;13.446;2023-06-26T05:37:45;12.03;;;11.23;;
76788;SDS011;65740;52.464;13.446;2023-06-26T05:40:13;12.10;;;11.30;;
76788;SDS011;65740;52.464;13.446;2023-06-26T05:42:39;11.80;;;11.00;;
76788;SDS011;65740;52.464;13.446;2023-06-26T05:45:05;11.97;;;11.13;;
76788;SDS011;65740;52.464;13.446;2023-06-26T05:47:31;11.90;;;11.00;;
76788;SDS011;65740;52.464;13.446;2023-06-26T05:49:57;11.70;;;10.90;;
76788;SDS011;65740;52.464;13.446;2023-06-26T05:52:22;12.57;;;11.73;;
76788;SDS011;65740;52.464;13.446;2023-06-26T05:54:48;11.00;;;10.30;;
76788;SDS011;65740;52.464;13.446;2023-06-26T05:57:14;12.67;;;11.67;;
76788;SDS011;65740;52.464;13.446;2023-06-26T05:59:41;12.20;;;11.40;;
76788;SDS011;65740;52.464;13.446;2023-06-26T06:02:08;12.23;;;11.40;;
76788;SDS011;65740;52.464;13.446;2023-06-26T06:04:34;12.13;;;11.30;;
76788;SDS011;65740;52.464;13.446;2023-06-26T06:07:00;12.23;;;11.40;;
76788;SDS011;65740;52.464;13.446;2023-06-26T06:09:26;12.13;;;11.33;;
76788;SDS011;65740;52.464;13.446;2023-06-26T06:11:51;12.20;;;11.40;;
76788;SDS011;65740;52.464;13.446;2023-06-26T06:14:17;11.10;;;10.30;;
76788;SDS011;65740;52.464;13.446;2023-06-26T06:16:42;11.80;;;10.80;;
76788;SDS011;65740;52.464;13.446;2023-06-26T06:19:08;12.10;;;11.20;;
76788;SDS011;65740;52.464;13.446;2023-06-26T06:21:36;12.57;;;11.67;;
76788;SDS011;65740;52.464;13.446;2023-06-26T06:24:02;11.63;;;10.83;;
76788;SDS011;65740;52.464;13.446;2023-06-26T06:26:28;12.23;;;11.43;;
76788;SDS011;65740;52.464;13.446;2023-06-26T06:28:53;12.63;;;11.73;;
76788;SDS011;65740;52.464;13.446;2023-06-26T06:31:19;12.80;;;11.90;;
76788;SDS011;65740;52.464;13.446;2023-06-26T06:33:45;11.40;;;10.60;;
76788;SDS011;65740;52.464;13.446;2023-06-26T06:36:11;12.23;;;11.40;;
76788;SDS011;65740;52.464;13.446;2023-06-26T06:38:36;11.57;;;10.77;;
76788;SDS011;65740;52.464;13.446;2023-06-26T06:41:02;12.07;;;11.17;;
76788;SDS011;65740;52.464;13.446;2023-06-26T06:43:27;11.70;;;10.90;;
76788;SDS011;65740;52.464;13.446;2023-06-26T06:45:53;12.50;;;11.60;;
76788;SDS011;65740;52.464;13.446;2023-06-26T06:48:19;11.13;;;10.33;;
76788;SDS011;65740;52.464;13.446;2023-06-26T06:50:44;12.10;;;11.20;;
76788;SDS011;65740;52.464;13.446;2023-06-26T06:53:10;11.90;;;11.00;;
76788;SDS011;65740;52.464;13.446;2023-06-26T06:55:35;11.83;;;11.00;;
76788;SDS011;65740;52.464;13.446;2023-06-26T06:58:01;12.43;;;11.43;;
76788;SDS011;65740;52.464;13.446;2023-06-26T07:00:27;12.30;;;11.50;;
76788;SDS011;65740;52.464;13.446;2023-06-26T07:02:53;12.40;;;11.50;;
76788;SDS011;65740;52.464;13.446;2023-06-26T07:05:19;12.20;;;11.40;;
76788;SDS011;65740;52.464;13.446;2023-06-26T07:07:44;12.40;;;11.50;;
76788;SDS011;65740;52.464;13.446;2023-06-26T07:10:11;12.67;;;11.87;;
76788;SDS011;65740;52.464;13.446;2023-06-26T07:12:38;11.40;;;10.60;;
76788;SDS011;65740;52.464;13.446;2023-06-26T07:15:04;12.00;;;11.10;;
76788;SDS011;65740;52.464;13.446;2023-06-26T07:17:31;11.07;;;10.30;;
76788;SDS011;65740;52.464;13.446;2023-06-26T07:19:57;13.00;;;12.00;;
76788;SDS011;65740;52.464;13.446;2023-06-26T07:22:24;12.40;;;11.50;;
76788;SDS011;65740;52.464;13.446;2023-06-26T07:24:49;11.80;;;11.00;;
76788;SDS011;65740;52.464;13.446;2023-06-26T07:27:15;11.53;;;10.70;;
76788;SDS011;65740;52.464;13.446;2023-06-26T07:29:42;11.27;;;10.57;;
76788;SDS011;65740;52.464;13.446;2023-06-26T07:32:08;10.93;;;10.13;;
76788;SDS011;65740;52.464;13.446;2023-06-26T07:34:34;11.10;;;10.40;;
76788;SDS011;65740;52.464;13.446;2023-06-26T07:37:00;10.93;;;10.23;;
76788;SDS011;65740;52.464;13.446;2023-06-26T07:39:25;11.33;;;10.53;;
76788;SDS011;65740;52.464;13.446;2023-06-26T07:41:51;12.00;;;11.17;;
76788;SDS011;65740;52.464;13.446;2023-06-26T07:44:17;12.37;;;11.23;;
76788;SDS011;65740;52.464;13.446;2023-06-26T07:46:42;10.30;;;9.37;;
76788;SDS011;65740;52.464;13.446;2023-06-26T07:49:09;11.20;;;10.10;;
76788;SDS011;65740;52.464;13.446;2023-06-26T07:51:36;11.67;;;10.57;;
76788;SDS011;65740;52.464;13.446;2023-06-26T07:54:01;11.93;;;10.90;;
76788;SDS011;65740;52.464;13.446;2023-06-26T07:56:27;11.43;;;10.30;;
76788;SDS011;65740;52.464;13.446;2023-06-26T07:58:52;11.00;;;9.90;;
76788;SDS011;65740;52.464;13.446;2023-06-26T08:01:18;11.53;;;9.90;;
76788;SDS011;65740;52.464;13.446;2023-06-26T08:03:44;11.63;;;10.43;;
76788;SDS011;65740;52.464;13.446;2023-06-26T08:06:09;11.77;;;10.67;;
76788;SDS011;65740;52.464;13.446;2023-06-26T08:08:35;11.53;;;10.40;;
76788;SDS011;65740;52.464;13.446;2023-06-26T08:11:01;11.27;;;10.30;;
76788;SDS011;65740;52.464;13.446;2023-06-26T08:13:27;11.93;;;10.70;;
76788;SDS011;65740;52.464;13.446;2023-06-26T08:15:52;14.80;;;10.63;;
76788;SDS011;65740;52.464;13.446;2023-06-26T08:18:18;12.43;;;10.40;;
76788;SDS011;65740;52.464;13.446;2023-06-26T08:20:44;12.10;;;10.80;;
76788;SDS011;65740;52.464;13.446;2023-06-26T08:23:10;12.40;;;9.57;;
76788;SDS011;65740;52.464;13.446;2023-06-26T08:25:35;11.83;;;10.60;;
76788;SDS011;65740;52.464;13.446;2023-06-26T08:28:01;11.57;;;10.67;;
76788;SDS011;65740;52.464;13.446;2023-06-26T08:30:26;10.53;;;9.63;;
76788;SDS011;65740;52.464;13.446;2023-06-26T08:32:56;11.03;;;10.10;;
76788;SDS011;65740;52.464;13.446;2023-06-26T08:35:21;12.00;;;11.00;;
76788;SDS011;65740;52.464;13.446;2023-06-26T08:37:47;11.47;;;10.20;;
76788;SDS011;65740;52.464;13.446;2023-06-26T08:40:14;12.33;;;9.77;;
76788;SDS011;65740;52.464;13.446;2023-06-26T08:42:42;12.20;;;10.00;;
76788;SDS011;65740;52.464;13.446;2023-06-26T08:45:08;11.47;;;10.47;;
76788;SDS011;65740;52.464;13.446;2023-06-26T08:47:34;11.07;;;10.10;;
76788;SDS011;65740;52.464;13.446;2023-06-26T08:50:03;13.07;;;9.70;;
76788;SDS011;65740;52.464;13.446;2023-06-26T08:55:26;11.03;;;9.10;;
76788;SDS011;65740;52.464;13.446;2023-06-26T08:57:53;10.10;;;9.30;;
76788;SDS011;65740;52.464;13.446;2023-06-26T09:00:20;12.83;;;9.20;;
76788;SDS011;65740;52.464;13.446;2023-06-26T09:02:46;10.27;;;9.37;;
76788;SDS011;65740;52.464;13.446;2023-06-26T09:05:12;10.13;;;9.23;;
76788;SDS011;65740;52.464;13.446;2023-06-26T09:07:38;9.93;;;8.03;;
76788;SDS011;65740;52.464;13.446;2023-06-26T09:10:04;11.17;;;9.23;;
76788;SDS011;65740;52.464;13.446;2023-06-26T09:12:30;10.57;;;8.70;;
76788;SDS011;65740;52.464;13.446;2023-06-26T09:14:58;9.77;;;8.83;;
76788;SDS011;65740;52.464;13.446;2023-06-26T09:17:25;10.80;;;9.13;;
76788;SDS011;65740;52.464;13.446;2023-06-26T09:19:54;11.37;;;9.10;;
76788;SDS011;65740;52.464;13.446;2023-06-26T09:22:20;8.90;;;8.00;;
76788;SDS011;65740;52.464;13.446;2023-06-26T09:24:47;8.97;;;8.30;;
76788;SDS011;65740;52.464;13.446;2023-06-26T09:27:13;9.43;;;8.53;;
76788;SDS011;65740;52.464;13.446;2023-06-26T09:29:39;10.33;;;8.67;;
76788;SDS011;65740;52.464;13.446;2023-06-26T09:32:05;12.50;;;9.20;;
76788;SDS011;65740;52.464;13.446;2023-06-26T09:34:33;8.67;;;7.77;;
76788;SDS011;65740;52.464;13.446;2023-06-26T09:36:59;8.73;;;7.93;;
76788;SDS011;65740;52.464;13.446;2023-06-26T09:39:30;9.20;;;8.33;;
76788;SDS011;65740;52.464;13.446;2023-06-26T09:41:56;8.30;;;7.70;;
76788;SDS011;65740;52.464;13.446;2023-06-26T09:44:22;9.50;;;8.67;;
76788;SDS011;65740;52.464;13.446;2023-06-26T09:46:48;9.03;;;8.33;;
76788;SDS011;65740;52.464;13.446;2023-06-26T09:49:14;9.40;;;8.60;;
76788;SDS011;65740;52.464;13.446;2023-06-26T09:51:41;9.83;;;8.83;;
76788;SDS011;65740;52.464;13.446;2023-06-26T09:54:07;8.07;;;7.37;;
76788;SDS011;65740;52.464;13.446;2023-06-26T09:56:34;8.30;;;7.70;;
76788;SDS011;65740;52.464;13.446;2023-06-26T09:59:00;8.87;;;8.27;;
76788;SDS011;65740;52.464;13.446;2023-06-26T10:01:28;9.07;;;8.27;;
76788;SDS011;65740;52.464;13.446;2023-06-26T10:03:55;8.73;;;7.97;;
76788;SDS011;65740;52.464;13.446;2023-06-26T10:06:33;8.97;;;8.07;;
76788;SDS011;65740;52.464;13.446;2023-06-26T10:09:05;8.93;;;8.23;;
76788;SDS011;65740;52.464;13.446;2023-06-26T10:11:55;8.97;;;8.27;;
76788;SDS011;65740;52.464;13.446;2023-06-26T10:14:26;9.53;;;8.83;;
76788;SDS011;65740;52.464;13.446;2023-06-26T10:16:52;12.37;;;7.80;;
76788;SDS011;65740;52.464;13.446;2023-06-26T10:19:26;9.63;;;8.80;;
76788;SDS011;65740;52.464;13.446;2023-06-26T10:21:53;9.27;;;8.47;;
76788;SDS011;65740;52.464;13.446;2023-06-26T10:24:20;10.50;;;9.07;;
76788;SDS011;65740;52.464;13.446;2023-06-26T10:26:49;9.70;;;8.70;;
76788;SDS011;65740;52.464;13.446;2023-06-26T10:29:17;8.37;;;7.67;;
76788;SDS011;65740;52.464;13.446;2023-06-26T10:31:45;8.97;;;8.37;;
76788;SDS011;65740;52.464;13.446;2023-06-26T10:34:15;9.30;;;8.40;;
76788;SDS011;65740;52.464;13.446;2023-06-26T10:36:41;8.20;;;7.50;;
76788;SDS011;65740;52.464;13.446;2023-06-26T10:39:07;11.17;;;9.30;;
76788;SDS011;65740;52.464;13.446;2023-06-26T10:41:38;10.03;;;9.23;;
76788;SDS011;65740;52.464;13.446;2023-06-26T10:44:25;8.73;;;8.03;;
76788;SDS011;65740;52.464;13.446;2023-06-26T10:46:54;9.83;;;8.60;;
76788;SDS011;65740;52.464;13.446;2023-06-26T10:49:27;9.73;;;8.93;;
76788;SDS011;65740;52.464;13.446;2023-06-26T10:51:54;8.83;;;8.13;;
76788;SDS011;65740;52.464;13.446;2023-06-26T10:54:25;8.93;;;8.33;;
76788;SDS011;65740;52.464;13.446;2023-06-26T10:56:55;8.70;;;7.77;;
76788;SDS011;65740;52.464;13.446;2023-06-26T10:59:25;9.33;;;8.50;;
76788;SDS011;65740;52.464;13.446;2023-06-26T11:01:59;8.43;;;7.80;;
76788;SDS011;65740;52.464;13.446;2023-06-26T11:04:36;8.70;;;7.90;;
76788;SDS011;65740;52.464;13.446;2023-06-26T11:15:10;8.77;;;8.07;;
76788;SDS011;65740;52.464;13.446;2023-06-26T11:17:42;8.60;;;7.87;;
76788;SDS011;65740;52.464;13.446;2023-06-26T11:20:09;8.63;;;8.00;;
76788;SDS011;65740;52.464;13.446;2023-06-26T11:22:37;8.67;;;7.97;;
76788;SDS011;65740;52.464;13.446;2023-06-26T11:25:07;8.10;;;7.50;;
76788;SDS011;65740;52.464;13.446;2023-06-26T11:27:43;8.63;;;7.70;;
76788;SDS011;65740;52.464;13.446;2023-06-26T11:30:10;8.60;;;8.00;;
76788;SDS011;65740;52.464;13.446;2023-06-26T11:32:47;8.53;;;7.77;;
76788;SDS011;65740;52.464;13.446;2023-06-26T11:35:12;8.30;;;7.80;;
76788;SDS011;65740;52.464;13.446;2023-06-26T11:37:38;8.83;;;8.03;;
76788;SDS011;65740;52.464;13.446;2023-06-26T11:40:20;8.57;;;7.80;;
76788;SDS011;65740;52.464;13.446;2023-06-26T11:42:46;9.60;;;8.60;;
76788;SDS011;65740;52.464;13.446;2023-06-26T11:45:12;8.87;;;8.27;;
76788;SDS011;65740;52.464;13.446;2023-06-26T11:47:38;8.73;;;8.13;;
76788;SDS011;65740;52.464;13.446;2023-06-26T11:50:04;8.53;;;7.93;;
76788;SDS011;65740;52.464;13.446;2023-06-26T11:52:30;7.83;;;7.33;;
76788;SDS011;65740;52.464;13.446;2023-06-26T11:54:58;8.20;;;7.60;;
76788;SDS011;65740;52.464;13.446;2023-06-26T11:57:24;9.00;;;8.40;;
76788;SDS011;65740;52.464;13.446;2023-06-26T11:59:50;9.07;;;8.47;;
76788;SDS011;65740;52.464;13.446;2023-06-26T12:02:17;9.00;;;8.30;;
76788;SDS011;65740;52.464;13.446;2023-06-26T12:04:43;8.83;;;8.23;;
76788;SDS011;65740;52.464;13.446;2023-06-26T12:07:09;8.80;;;8.10;;
76788;SDS011;65740;52.464;13.446;2023-06-26T12:09:42;9.37;;;8.57;;
76788;SDS011;65740;52.464;13.446;2023-06-26T12:12:09;8.87;;;8.27;;
76788;SDS011;65740;52.464;13.446;2023-06-26T12:14:36;8.97;;;8.27;;
76788;SDS011;65740;52.464;13.446;2023-06-26T12:17:05;9.03;;;8.40;;
76788;SDS011;65740;52.464;13.446;2023-06-26T12:19:39;8.40;;;7.73;;
76788;SDS011;65740;52.464;13.446;2023-06-26T12:22:08;8.97;;;8.27;;
76788;SDS011;65740;52.464;13.446;2023-06-26T12:24:36;9.10;;;8.40;;
76788;SDS011;65740;52.464;13.446;2023-06-26T12:27:07;8.50;;;7.90;;
76788;SDS011;65740;52.464;13.446;2023-06-26T12:29:34;9.50;;;8.80;;
76788;SDS011;65740;52.464;13.446;2023-06-26T12:32:00;9.10;;;8.40;;
76788;SDS011;65740;52.464;13.446;2023-06-26T12:34:28;9.03;;;8.43;;
76788;SDS011;65740;52.464;13.446;2023-06-26T12:36:59;8.80;;;8.20;;
76788;SDS011;65740;52.464;13.446;2023-06-26T12:39:29;9.57;;;8.87;;
76788;SDS011;65740;52.464;13.446;2023-06-26T12:42:09;9.07;;;8.47;;
76788;SDS011;65740;52.464;13.446;2023-06-26T12:44:40;10.10;;;9.40;;
76788;SDS011;65740;52.464;13.446;2023-06-26T12:47:05;9.03;;;8.43;;
76788;SDS011;65740;52.464;13.446;2023-06-26T12:49:36;8.97;;;8.13;;
76788;SDS011;65740;52.464;13.446;2023-06-26T12:52:03;9.87;;;9.13;;
76788;SDS011;65740;52.464;13.446;2023-06-26T12:54:35;9.33;;;8.60;;
76788;SDS011;65740;52.464;13.446;2023-06-26T12:57:04;9.27;;;8.37;;
76788;SDS011;65740;52.464;13.446;2023-06-26T12:59:30;9.13;;;8.43;;
76788;SDS011;65740;52.464;13.446;2023-06-26T13:02:02;10.17;;;9.20;;
76788;SDS011;65740;52.464;13.446;2023-06-26T13:04:28;10.97;;;10.17;;
76788;SDS011;65740;52.464;13.446;2023-06-26T13:06:55;10.90;;;10.10;;
76788;SDS011;65740;52.464;13.446;2023-06-26T13:09:21;10.07;;;9.37;;
76788;SDS011;65740;52.464;13.446;2023-06-26T13:11:47;9.83;;;8.93;;
76788;SDS011;65740;52.464;13.446;2023-06-26T13:14:13;10.43;;;9.70;;
76788;SDS011;65740;52.464;13.446;2023-06-26T13:16:39;10.27;;;9.47;;
76788;SDS011;65740;52.464;13.446;2023-06-26T13:19:05;10.83;;;10.10;;
76788;SDS011;65740;52.464;13.446;2023-06-26T13:21:31;10.83;;;10.03;;
76788;SDS011;65740;52.464;13.446;2023-06-26T13:23:58;10.40;;;9.60;;
76788;SDS011;65740;52.464;13.446;2023-06-26T13:26:24;10.87;;;9.97;;
76788;SDS011;65740;52.464;13.446;2023-06-26T13:28:51;10.63;;;9.80;;
76788;SDS011;65740;52.464;13.446;2023-06-26T13:31:17;11.33;;;10.30;;
76788;SDS011;65740;52.464;13.446;2023-06-26T13:33:43;10.73;;;9.93;;
76788;SDS011;65740;52.464;13.446;2023-06-26T13:36:11;11.10;;;10.20;;
76788;SDS011;65740;52.464;13.446;2023-06-26T13:38:36;11.53;;;10.60;;
76788;SDS011;65740;52.464;13.446;2023-06-26T13:41:02;11.20;;;10.20;;
76788;SDS011;65740;52.464;13.446;2023-06-26T13:43:28;10.97;;;10.17;;
76788;SDS011;65740;52.464;13.446;2023-06-26T13:45:55;11.50;;;10.53;;
76788;SDS011;65740;52.464;13.446;2023-06-26T13:48:21;13.10;;;10.50;;
76788;SDS011;65740;52.464;13.446;2023-06-26T13:50:49;11.17;;;10.17;;
76788;SDS011;65740;52.464;13.446;2023-06-26T13:53:15;9.73;;;8.93;;
76788;SDS011;65740;52.464;13.446;2023-06-26T13:55:41;12.67;;;10.07;;
76788;SDS011;65740;52.464;13.446;2023-06-26T13:58:07;11.53;;;10.63;;
76788;SDS011;65740;52.464;13.446;2023-06-26T14:00:33;11.50;;;10.60;;
76788;SDS011;65740;52.464;13.446;2023-06-26T14:03:00;11.03;;;10.20;;
76788;SDS011;65740;52.464;13.446;2023-06-26T14:05:26;10.10;;;9.20;;
76788;SDS011;65740;52.464;13.446;2023-06-26T14:07:52;10.53;;;9.70;;
76788;SDS011;65740;52.464;13.446;2023-06-26T14:10:19;13.37;;;9.50;;
76788;SDS011;65740;52.464;13.446;2023-06-26T14:12:45;11.90;;;10.50;;
76788;SDS011;65740;52.464;13.446;2023-06-26T14:15:12;10.93;;;10.00;;
76788;SDS011;65740;52.464;13.446;2023-06-26T14:17:38;10.80;;;9.90;;
76788;SDS011;65740;52.464;13.446;2023-06-26T14:20:08;10.43;;;9.73;;
76788;SDS011;65740;52.464;13.446;2023-06-26T14:22:41;11.77;;;10.60;;
76788;SDS011;65740;52.464;13.446;2023-06-26T14:25:09;12.03;;;11.00;;
76788;SDS011;65740;52.464;13.446;2023-06-26T14:27:36;24.30;;;11.53;;
76788;SDS011;65740;52.464;13.446;2023-06-26T14:30:02;14.90;;;10.23;;
76788;SDS011;65740;52.464;13.446;2023-06-26T14:32:29;22.23;;;10.50;;